sensor_id;sensor_type;location;lat;lon;timestamp;P1;durP1;ratioP1;P2;durP2;ratioP2
6665;SDS011;3369;49.906;8.598;2022-07-23T00:01:57;3.40;;;3.13;;
6665;SDS011;3369;49.906;8.598;2022-07-23T00:04:23;3.72;;;3.40;;
6665;SDS011;3369;49.906;8.598;2022-07-23T00:06:49;3.70;;;3.40;;
6665;SDS011;3369;49.906;8.598;2022-07-23T00:09:14;3.40;;;3.20;;
6665;SDS011;3369;49.906;8.598;2022-07-23T00:11:40;3.60;;;3.38;;
6665;SDS011;3369;49.906;8.598;2022-07-23T00:14:05;3.30;;;3.10;;
6665;SDS011;3369;49.906;8.598;2022-07-23T00:16:31;3.03;;;2.83;;
6665;SDS011;3369;49.906;8.598;2022-07-23T00:18:57;3.10;;;2.90;;
6665;SDS011;3369;49.906;8.598;2022-07-23T00:21:26;3.45;;;3.22;;
6665;SDS011;3369;49.906;8.598;2022-07-23T00:23:51;3.42;;;3.22;;
6665;SDS011;3369;49.906;8.598;2022-07-23T00:26:17;3.63;;;3.30;;
6665;SDS011;3369;49.906;8.598;2022-07-23T00:28:43;3.38;;;3.08;;
6665;SDS011;3369;49.906;8.598;2022-07-23T00:31:08;3.80;;;3.50;;
6665;SDS011;3369;49.906;8.598;2022-07-23T00:33:34;3.40;;;3.20;;
6665;SDS011;3369;49.906;8.598;2022-07-23T00:36:00;3.20;;;3.00;;
6665;SDS011;3369;49.906;8.598;2022-07-23T00:38:25;3.10;;;2.90;;
6665;SDS011;3369;49.906;8.598;2022-07-23T00:40:51;3.28;;;2.97;;
6665;SDS011;3369;49.906;8.598;2022-07-23T00:43:19;3.25;;;3.00;;
6665;SDS011;3369;49.906;8.598;2022-07-23T00:45:47;3.58;;;3.35;;
6665;SDS011;3369;49.906;8.598;2022-07-23T00:48:12;3.30;;;3.10;;
6665;SDS011;3369;49.906;8.598;2022-07-23T00:50:38;2.90;;;2.70;;
6665;SDS011;3369;49.906;8.598;2022-07-23T00:53:04;4.75;;;3.40;;
6665;SDS011;3369;49.906;8.598;2022-07-23T00:55:30;3.10;;;2.90;;
6665;SDS011;3369;49.906;8.598;2022-07-23T00:57:57;3.60;;;3.30;;
6665;SDS011;3369;49.906;8.598;2022-07-23T01:00:23;3.65;;;3.35;;
6665;SDS011;3369;49.906;8.598;2022-07-23T01:02:49;3.50;;;3.20;;
6665;SDS011;3369;49.906;8.598;2022-07-23T01:05:15;3.80;;;3.50;;
6665;SDS011;3369;49.906;8.598;2022-07-23T01:07:43;3.90;;;3.60;;
6665;SDS011;3369;49.906;8.598;2022-07-23T01:10:09;4.00;;;3.70;;
6665;SDS011;3369;49.906;8.598;2022-07-23T01:12:53;4.00;;;3.70;;
6665;SDS011;3369;49.906;8.598;2022-07-23T01:15:19;3.97;;;3.67;;
6665;SDS011;3369;49.906;8.598;2022-07-23T01:17:45;3.72;;;3.42;;
6665;SDS011;3369;49.906;8.598;2022-07-23T01:20:11;3.22;;;3.03;;
6665;SDS011;3369;49.906;8.598;2022-07-23T01:22:36;3.53;;;3.33;;
6665;SDS011;3369;49.906;8.598;2022-07-23T01:25:02;3.70;;;3.40;;
6665;SDS011;3369;49.906;8.598;2022-07-23T01:27:28;3.83;;;3.53;;
6665;SDS011;3369;49.906;8.598;2022-07-23T01:29:54;4.22;;;3.92;;
6665;SDS011;3369;49.906;8.598;2022-07-23T01:32:21;3.67;;;3.38;;
6665;SDS011;3369;49.906;8.598;2022-07-23T01:34:47;3.78;;;3.47;;
6665;SDS011;3369;49.906;8.598;2022-07-23T01:57:35;3.60;;;3.30;;
6665;SDS011;3369;49.906;8.598;2022-07-23T02:00:01;3.80;;;3.50;;
6665;SDS011;3369;49.906;8.598;2022-07-23T02:02:28;3.80;;;3.50;;
6665;SDS011;3369;49.906;8.598;2022-07-23T02:04:53;3.88;;;3.58;;
6665;SDS011;3369;49.906;8.598;2022-07-23T02:07:19;4.50;;;4.10;;
6665;SDS011;3369;49.906;8.598;2022-07-23T02:09:45;4.72;;;4.32;;
6665;SDS011;3369;49.906;8.598;2022-07-23T02:12:10;3.70;;;3.50;;
6665;SDS011;3369;49.906;8.598;2022-07-23T02:14:36;4.07;;;3.78;;
6665;SDS011;3369;49.906;8.598;2022-07-23T02:17:02;3.85;;;3.55;;
6665;SDS011;3369;49.906;8.598;2022-07-23T02:19:28;4.30;;;3.95;;
6665;SDS011;3369;49.906;8.598;2022-07-23T02:21:54;4.00;;;3.65;;
6665;SDS011;3369;49.906;8.598;2022-07-23T02:24:19;4.68;;;4.28;;
6665;SDS011;3369;49.906;8.598;2022-07-23T02:26:46;3.25;;;3.05;;
6665;SDS011;3369;49.906;8.598;2022-07-23T02:29:11;4.13;;;3.78;;
6665;SDS011;3369;49.906;8.598;2022-07-23T02:31:37;3.72;;;3.42;;
6665;SDS011;3369;49.906;8.598;2022-07-23T02:34:03;4.10;;;3.78;;
6665;SDS011;3369;49.906;8.598;2022-07-23T02:36:29;4.18;;;3.85;;
6665;SDS011;3369;49.906;8.598;2022-07-23T02:38:55;4.07;;;3.78;;
6665;SDS011;3369;49.906;8.598;2022-07-23T02:41:21;4.37;;;3.97;;
6665;SDS011;3369;49.906;8.598;2022-07-23T02:43:46;4.13;;;3.83;;
6665;SDS011;3369;49.906;8.598;2022-07-23T02:46:12;5.18;;;3.67;;
6665;SDS011;3369;49.906;8.598;2022-07-23T02:48:38;4.00;;;3.70;;
6665;SDS011;3369;49.906;8.598;2022-07-23T02:51:03;4.57;;;4.18;;
6665;SDS011;3369;49.906;8.598;2022-07-23T02:53:29;4.38;;;4.00;;
6665;SDS011;3369;49.906;8.598;2022-07-23T02:55:55;5.00;;;4.60;;
6665;SDS011;3369;49.906;8.598;2022-07-23T02:58:20;3.97;;;3.67;;
6665;SDS011;3369;49.906;8.598;2022-07-23T03:00:46;4.35;;;4.03;;
6665;SDS011;3369;49.906;8.598;2022-07-23T03:03:12;4.15;;;3.85;;
6665;SDS011;3369;49.906;8.598;2022-07-23T03:05:37;3.85;;;3.55;;
6665;SDS011;3369;49.906;8.598;2022-07-23T03:08:03;4.18;;;3.88;;
6665;SDS011;3369;49.906;8.598;2022-07-23T03:10:29;4.35;;;3.95;;
6665;SDS011;3369;49.906;8.598;2022-07-23T03:12:54;3.70;;;3.40;;
6665;SDS011;3369;49.906;8.598;2022-07-23T03:15:20;3.88;;;3.67;;
6665;SDS011;3369;49.906;8.598;2022-07-23T03:17:46;4.07;;;3.72;;
6665;SDS011;3369;49.906;8.598;2022-07-23T03:20:11;4.20;;;3.90;;
6665;SDS011;3369;49.906;8.598;2022-07-23T03:22:37;4.07;;;3.78;;
6665;SDS011;3369;49.906;8.598;2022-07-23T03:25:03;4.35;;;4.00;;
6665;SDS011;3369;49.906;8.598;2022-07-23T03:27:29;4.18;;;3.88;;
6665;SDS011;3369;49.906;8.598;2022-07-23T03:29:56;3.75;;;3.45;;
6665;SDS011;3369;49.906;8.598;2022-07-23T03:32:23;4.47;;;4.10;;
6665;SDS011;3369;49.906;8.598;2022-07-23T03:34:49;3.73;;;3.43;;
6665;SDS011;3369;49.906;8.598;2022-07-23T03:37:16;3.78;;;3.47;;
6665;SDS011;3369;49.906;8.598;2022-07-23T03:39:43;4.18;;;3.85;;
6665;SDS011;3369;49.906;8.598;2022-07-23T03:42:08;4.65;;;4.25;;
6665;SDS011;3369;49.906;8.598;2022-07-23T03:44:34;4.40;;;4.03;;
6665;SDS011;3369;49.906;8.598;2022-07-23T03:47:02;4.00;;;3.70;;
6665;SDS011;3369;49.906;8.598;2022-07-23T03:49:28;4.00;;;3.70;;
6665;SDS011;3369;49.906;8.598;2022-07-23T03:51:54;4.03;;;3.72;;
6665;SDS011;3369;49.906;8.598;2022-07-23T03:54:19;4.18;;;3.88;;
6665;SDS011;3369;49.906;8.598;2022-07-23T03:56:45;3.38;;;3.17;;
6665;SDS011;3369;49.906;8.598;2022-07-23T03:59:11;4.00;;;3.70;;
6665;SDS011;3369;49.906;8.598;2022-07-23T04:01:37;3.67;;;3.47;;
6665;SDS011;3369;49.906;8.598;2022-07-23T04:04:02;3.53;;;3.30;;
6665;SDS011;3369;49.906;8.598;2022-07-23T04:06:28;3.58;;;3.38;;
6665;SDS011;3369;49.906;8.598;2022-07-23T04:08:54;3.80;;;3.50;;
6665;SDS011;3369;49.906;8.598;2022-07-23T04:11:20;3.63;;;3.33;;
6665;SDS011;3369;49.906;8.598;2022-07-23T04:13:46;3.42;;;3.22;;
6665;SDS011;3369;49.906;8.598;2022-07-23T04:16:11;3.80;;;3.50;;
6665;SDS011;3369;49.906;8.598;2022-07-23T04:18:37;3.72;;;3.42;;
6665;SDS011;3369;49.906;8.598;2022-07-23T04:21:03;3.65;;;3.35;;
6665;SDS011;3369;49.906;8.598;2022-07-23T04:23:29;4.00;;;3.70;;
6665;SDS011;3369;49.906;8.598;2022-07-23T04:25:54;3.55;;;3.33;;
6665;SDS011;3369;49.906;8.598;2022-07-23T04:28:20;4.38;;;3.97;;
6665;SDS011;3369;49.906;8.598;2022-07-23T04:30:46;3.78;;;3.58;;
6665;SDS011;3369;49.906;8.598;2022-07-23T04:33:11;4.07;;;3.78;;
6665;SDS011;3369;49.906;8.598;2022-07-23T04:35:37;4.13;;;3.83;;
6665;SDS011;3369;49.906;8.598;2022-07-23T04:38:03;3.85;;;3.50;;
6665;SDS011;3369;49.906;8.598;2022-07-23T04:40:29;4.03;;;3.63;;
6665;SDS011;3369;49.906;8.598;2022-07-23T04:42:55;4.05;;;3.75;;
6665;SDS011;3369;49.906;8.598;2022-07-23T04:45:21;4.50;;;4.07;;
6665;SDS011;3369;49.906;8.598;2022-07-23T04:47:48;4.30;;;4.00;;
6665;SDS011;3369;49.906;8.598;2022-07-23T04:50:14;4.30;;;3.90;;
6665;SDS011;3369;49.906;8.598;2022-07-23T04:52:43;4.07;;;3.78;;
6665;SDS011;3369;49.906;8.598;2022-07-23T04:55:09;4.60;;;4.20;;
6665;SDS011;3369;49.906;8.598;2022-07-23T04:57:35;5.60;;;5.07;;
6665;SDS011;3369;49.906;8.598;2022-07-23T05:00:01;4.63;;;4.22;;
6665;SDS011;3369;49.906;8.598;2022-07-23T05:02:28;4.25;;;3.95;;
6665;SDS011;3369;49.906;8.598;2022-07-23T05:04:53;4.95;;;4.55;;
6665;SDS011;3369;49.906;8.598;2022-07-23T05:07:19;4.53;;;4.23;;
6665;SDS011;3369;49.906;8.598;2022-07-23T05:09:44;4.47;;;4.07;;
6665;SDS011;3369;49.906;8.598;2022-07-23T05:12:10;4.07;;;3.78;;
6665;SDS011;3369;49.906;8.598;2022-07-23T05:14:36;4.38;;;4.07;;
6665;SDS011;3369;49.906;8.598;2022-07-23T05:17:01;4.30;;;4.00;;
6665;SDS011;3369;49.906;8.598;2022-07-23T05:19:27;4.13;;;3.83;;
6665;SDS011;3369;49.906;8.598;2022-07-23T05:21:53;4.47;;;4.10;;
6665;SDS011;3369;49.906;8.598;2022-07-23T05:24:18;4.40;;;4.10;;
6665;SDS011;3369;49.906;8.598;2022-07-23T05:26:44;4.38;;;4.07;;
6665;SDS011;3369;49.906;8.598;2022-07-23T05:29:09;4.30;;;4.00;;
6665;SDS011;3369;49.906;8.598;2022-07-23T05:31:35;4.35;;;4.05;;
6665;SDS011;3369;49.906;8.598;2022-07-23T05:34:01;4.43;;;4.13;;
6665;SDS011;3369;49.906;8.598;2022-07-23T05:36:27;4.35;;;3.97;;
6665;SDS011;3369;49.906;8.598;2022-07-23T05:38:52;4.25;;;3.88;;
6665;SDS011;3369;49.906;8.598;2022-07-23T05:41:18;4.70;;;4.30;;
6665;SDS011;3369;49.906;8.598;2022-07-23T05:43:43;4.57;;;4.22;;
6665;SDS011;3369;49.906;8.598;2022-07-23T05:46:09;4.05;;;3.75;;
6665;SDS011;3369;49.906;8.598;2022-07-23T05:48:35;4.63;;;4.32;;
6665;SDS011;3369;49.906;8.598;2022-07-23T05:51:00;4.70;;;4.30;;
6665;SDS011;3369;49.906;8.598;2022-07-23T05:53:28;4.90;;;4.50;;
6665;SDS011;3369;49.906;8.598;2022-07-23T05:55:54;4.68;;;4.28;;
6665;SDS011;3369;49.906;8.598;2022-07-23T05:58:19;4.93;;;4.53;;
6665;SDS011;3369;49.906;8.598;2022-07-23T06:00:45;4.50;;;4.20;;
6665;SDS011;3369;49.906;8.598;2022-07-23T06:03:11;5.35;;;4.85;;
6665;SDS011;3369;49.906;8.598;2022-07-23T06:05:36;5.30;;;4.80;;
6665;SDS011;3369;49.906;8.598;2022-07-23T06:08:02;5.78;;;5.28;;
6665;SDS011;3369;49.906;8.598;2022-07-23T06:10:28;5.50;;;5.05;;
6665;SDS011;3369;49.906;8.598;2022-07-23T06:12:53;5.22;;;4.72;;
6665;SDS011;3369;49.906;8.598;2022-07-23T06:15:19;5.65;;;5.20;;
6665;SDS011;3369;49.906;8.598;2022-07-23T06:17:44;5.40;;;5.00;;
6665;SDS011;3369;49.906;8.598;2022-07-23T06:20:10;7.65;;;5.45;;
6665;SDS011;3369;49.906;8.598;2022-07-23T06:22:36;5.78;;;5.28;;
6665;SDS011;3369;49.906;8.598;2022-07-23T06:25:02;5.13;;;4.72;;
6665;SDS011;3369;49.906;8.598;2022-07-23T06:27:28;5.25;;;4.85;;
6665;SDS011;3369;49.906;8.598;2022-07-23T06:29:54;5.63;;;5.13;;
6665;SDS011;3369;49.906;8.598;2022-07-23T06:32:20;4.90;;;4.47;;
6665;SDS011;3369;49.906;8.598;2022-07-23T06:34:45;5.40;;;4.90;;
6665;SDS011;3369;49.906;8.598;2022-07-23T06:37:11;5.50;;;5.00;;
6665;SDS011;3369;49.906;8.598;2022-07-23T06:39:37;5.70;;;5.15;;
6665;SDS011;3369;49.906;8.598;2022-07-23T06:42:02;6.10;;;4.90;;
6665;SDS011;3369;49.906;8.598;2022-07-23T06:44:28;5.03;;;4.60;;
6665;SDS011;3369;49.906;8.598;2022-07-23T06:46:54;5.13;;;4.72;;
6665;SDS011;3369;49.906;8.598;2022-07-23T06:49:19;5.07;;;4.68;;
6665;SDS011;3369;49.906;8.598;2022-07-23T06:51:45;5.88;;;5.20;;
6665;SDS011;3369;49.906;8.598;2022-07-23T06:54:11;5.03;;;4.63;;
6665;SDS011;3369;49.906;8.598;2022-07-23T06:56:36;5.78;;;5.28;;
6665;SDS011;3369;49.906;8.598;2022-07-23T06:59:02;6.25;;;5.75;;
6665;SDS011;3369;49.906;8.598;2022-07-23T07:01:28;5.13;;;4.72;;
6665;SDS011;3369;49.906;8.598;2022-07-23T07:03:54;4.80;;;4.40;;
6665;SDS011;3369;49.906;8.598;2022-07-23T07:06:19;5.40;;;4.90;;
6665;SDS011;3369;49.906;8.598;2022-07-23T07:08:45;4.47;;;4.18;;
6665;SDS011;3369;49.906;8.598;2022-07-23T07:11:11;4.55;;;4.15;;
6665;SDS011;3369;49.906;8.598;2022-07-23T07:13:37;5.00;;;4.50;;
6665;SDS011;3369;49.906;8.598;2022-07-23T07:16:03;5.32;;;4.82;;
6665;SDS011;3369;49.906;8.598;2022-07-23T07:18:29;4.85;;;4.45;;
6665;SDS011;3369;49.906;8.598;2022-07-23T07:20:55;4.85;;;4.43;;
6665;SDS011;3369;49.906;8.598;2022-07-23T07:23:22;4.60;;;4.20;;
6665;SDS011;3369;49.906;8.598;2022-07-23T07:25:48;6.03;;;4.95;;
6665;SDS011;3369;49.906;8.598;2022-07-23T07:28:14;6.15;;;4.88;;
6665;SDS011;3369;49.906;8.598;2022-07-23T07:30:40;4.93;;;4.53;;
6665;SDS011;3369;49.906;8.598;2022-07-23T07:33:06;4.50;;;4.20;;
6665;SDS011;3369;49.906;8.598;2022-07-23T07:35:31;6.18;;;5.22;;
6665;SDS011;3369;49.906;8.598;2022-07-23T07:37:58;5.35;;;4.72;;
6665;SDS011;3369;49.906;8.598;2022-07-23T07:40:24;5.05;;;4.55;;
6665;SDS011;3369;49.906;8.598;2022-07-23T07:42:51;4.90;;;4.50;;
6665;SDS011;3369;49.906;8.598;2022-07-23T07:45:20;5.13;;;4.72;;
6665;SDS011;3369;49.906;8.598;2022-07-23T07:47:46;6.20;;;5.45;;
6665;SDS011;3369;49.906;8.598;2022-07-23T07:50:11;6.35;;;5.20;;
6665;SDS011;3369;49.906;8.598;2022-07-23T07:52:37;5.53;;;4.75;;
6665;SDS011;3369;49.906;8.598;2022-07-23T07:55:06;5.38;;;4.88;;
6665;SDS011;3369;49.906;8.598;2022-07-23T07:57:34;4.70;;;4.32;;
6665;SDS011;3369;49.906;8.598;2022-07-23T08:00:00;6.00;;;5.13;;
6665;SDS011;3369;49.906;8.598;2022-07-23T08:02:26;5.50;;;5.00;;
6665;SDS011;3369;49.906;8.598;2022-07-23T08:04:52;5.32;;;4.82;;
6665;SDS011;3369;49.906;8.598;2022-07-23T08:07:18;5.40;;;4.90;;
6665;SDS011;3369;49.906;8.598;2022-07-23T08:09:44;5.43;;;4.45;;
6665;SDS011;3369;49.906;8.598;2022-07-23T08:12:09;5.13;;;4.63;;
6665;SDS011;3369;49.906;8.598;2022-07-23T08:14:35;4.63;;;4.22;;
6665;SDS011;3369;49.906;8.598;2022-07-23T08:17:01;6.20;;;4.43;;
6665;SDS011;3369;49.906;8.598;2022-07-23T08:19:26;4.20;;;3.90;;
6665;SDS011;3369;49.906;8.598;2022-07-23T08:21:52;4.40;;;4.00;;
6665;SDS011;3369;49.906;8.598;2022-07-23T08:24:17;6.15;;;4.93;;
6665;SDS011;3369;49.906;8.598;2022-07-23T08:26:43;5.70;;;4.90;;
6665;SDS011;3369;49.906;8.598;2022-07-23T08:29:09;7.00;;;5.22;;
6665;SDS011;3369;49.906;8.598;2022-07-23T08:31:35;5.50;;;4.88;;
6665;SDS011;3369;49.906;8.598;2022-07-23T08:34:00;5.15;;;4.65;;
6665;SDS011;3369;49.906;8.598;2022-07-23T08:36:27;4.68;;;4.28;;
6665;SDS011;3369;49.906;8.598;2022-07-23T08:38:56;4.03;;;3.72;;
6665;SDS011;3369;49.906;8.598;2022-07-23T08:41:22;5.05;;;4.40;;
6665;SDS011;3369;49.906;8.598;2022-07-23T08:43:47;5.88;;;5.10;;
6665;SDS011;3369;49.906;8.598;2022-07-23T08:46:13;5.20;;;4.80;;
6665;SDS011;3369;49.906;8.598;2022-07-23T08:48:41;4.68;;;4.07;;
6665;SDS011;3369;49.906;8.598;2022-07-23T08:51:08;5.75;;;4.30;;
6665;SDS011;3369;49.906;8.598;2022-07-23T08:53:35;4.43;;;4.13;;
6665;SDS011;3369;49.906;8.598;2022-07-23T08:56:03;8.10;;;4.78;;
6665;SDS011;3369;49.906;8.598;2022-07-23T08:58:30;5.28;;;4.47;;
6665;SDS011;3369;49.906;8.598;2022-07-23T09:00:56;5.13;;;4.40;;
6665;SDS011;3369;49.906;8.598;2022-07-23T09:03:23;5.95;;;4.05;;
6665;SDS011;3369;49.906;8.598;2022-07-23T09:05:53;5.07;;;4.57;;
6665;SDS011;3369;49.906;8.598;2022-07-23T09:08:42;5.07;;;4.60;;
6665;SDS011;3369;49.906;8.598;2022-07-23T09:11:08;4.63;;;4.22;;
6665;SDS011;3369;49.906;8.598;2022-07-23T09:13:48;5.00;;;4.50;;
6665;SDS011;3369;49.906;8.598;2022-07-23T09:16:15;6.80;;;4.80;;
6665;SDS011;3369;49.906;8.598;2022-07-23T09:18:47;4.93;;;4.47;;
6665;SDS011;3369;49.906;8.598;2022-07-23T09:21:15;5.30;;;4.80;;
6665;SDS011;3369;49.906;8.598;2022-07-23T09:23:42;5.43;;;4.90;;
6665;SDS011;3369;49.906;8.598;2022-07-23T09:26:21;5.28;;;4.78;;
6665;SDS011;3369;49.906;8.598;2022-07-23T09:28:52;5.10;;;4.55;;
6665;SDS011;3369;49.906;8.598;2022-07-23T09:31:20;5.13;;;4.40;;
6665;SDS011;3369;49.906;8.598;2022-07-23T09:33:45;5.97;;;4.53;;
6665;SDS011;3369;49.906;8.598;2022-07-23T09:36:11;4.43;;;4.05;;
6665;SDS011;3369;49.906;8.598;2022-07-23T09:38:47;4.30;;;4.00;;
6665;SDS011;3369;49.906;8.598;2022-07-23T09:41:14;4.93;;;4.43;;
6665;SDS011;3369;49.906;8.598;2022-07-23T09:43:40;4.40;;;4.00;;
6665;SDS011;3369;49.906;8.598;2022-07-23T09:48:51;5.85;;;5.22;;
6665;SDS011;3369;49.906;8.598;2022-07-23T09:51:18;5.70;;;5.07;;
6665;SDS011;3369;49.906;8.598;2022-07-23T09:54:02;5.55;;;4.47;;
6665;SDS011;3369;49.906;8.598;2022-07-23T09:56:28;5.25;;;4.75;;
6665;SDS011;3369;49.906;8.598;2022-07-23T09:58:54;6.03;;;4.72;;
6665;SDS011;3369;49.906;8.598;2022-07-23T10:01:31;4.65;;;4.25;;
6665;SDS011;3369;49.906;8.598;2022-07-23T10:03:57;5.60;;;5.00;;
6665;SDS011;3369;49.906;8.598;2022-07-23T10:06:24;5.03;;;4.53;;
6665;SDS011;3369;49.906;8.598;2022-07-23T10:08:50;4.53;;;4.13;;
6665;SDS011;3369;49.906;8.598;2022-07-23T10:11:19;5.05;;;4.47;;
6665;SDS011;3369;49.906;8.598;2022-07-23T10:13:44;4.63;;;4.30;;
6665;SDS011;3369;49.906;8.598;2022-07-23T10:16:27;5.72;;;5.18;;
6665;SDS011;3369;49.906;8.598;2022-07-23T10:18:54;4.63;;;4.22;;
6665;SDS011;3369;49.906;8.598;2022-07-23T10:29:51;4.75;;;4.35;;
6665;SDS011;3369;49.906;8.598;2022-07-23T10:32:24;5.07;;;4.68;;
6665;SDS011;3369;49.906;8.598;2022-07-23T10:35:18;5.32;;;4.60;;
6665;SDS011;3369;49.906;8.598;2022-07-23T10:37:55;5.88;;;5.15;;
6665;SDS011;3369;49.906;8.598;2022-07-23T10:43:21;5.75;;;5.25;;
6665;SDS011;3369;49.906;8.598;2022-07-23T10:45:47;5.47;;;4.68;;
6665;SDS011;3369;49.906;8.598;2022-07-23T10:48:20;5.80;;;5.10;;
6665;SDS011;3369;49.906;8.598;2022-07-23T10:56:15;7.22;;;5.07;;
6665;SDS011;3369;49.906;8.598;2022-07-23T10:58:47;5.78;;;5.28;;
6665;SDS011;3369;49.906;8.598;2022-07-23T11:04:04;5.10;;;4.63;;
6665;SDS011;3369;49.906;8.598;2022-07-23T11:07:32;5.30;;;4.80;;
6665;SDS011;3369;49.906;8.598;2022-07-23T11:09:40;5.50;;;5.00;;
6665;SDS011;3369;49.906;8.598;2022-07-23T11:20:17;5.45;;;5.05;;
6665;SDS011;3369;49.906;8.598;2022-07-23T11:22:49;5.60;;;5.00;;
6665;SDS011;3369;49.906;8.598;2022-07-23T11:27:48;6.30;;;5.50;;
6665;SDS011;3369;49.906;8.598;2022-07-23T11:32:53;5.72;;;5.22;;
6665;SDS011;3369;49.906;8.598;2022-07-23T11:35:47;6.80;;;5.95;;
6665;SDS011;3369;49.906;8.598;2022-07-23T11:38:24;5.57;;;5.07;;
6665;SDS011;3369;49.906;8.598;2022-07-23T11:40:51;5.43;;;5.03;;
6665;SDS011;3369;49.906;8.598;2022-07-23T11:43:19;5.85;;;4.95;;
6665;SDS011;3369;49.906;8.598;2022-07-23T11:45:47;5.65;;;5.10;;
6665;SDS011;3369;49.906;8.598;2022-07-23T11:50:47;5.25;;;4.85;;
6665;SDS011;3369;49.906;8.598;2022-07-23T11:53:20;5.60;;;5.10;;
6665;SDS011;3369;49.906;8.598;2022-07-23T11:56:05;5.53;;;5.03;;
6665;SDS011;3369;49.906;8.598;2022-07-23T11:58:32;5.55;;;5.13;;
6665;SDS011;3369;49.906;8.598;2022-07-23T12:00:58;6.25;;;5.13;;
6665;SDS011;3369;49.906;8.598;2022-07-23T12:03:24;5.53;;;5.13;;
6665;SDS011;3369;49.906;8.598;2022-07-23T12:05:50;5.68;;;5.18;;
6665;SDS011;3369;49.906;8.598;2022-07-23T12:08:21;5.18;;;4.78;;
6665;SDS011;3369;49.906;8.598;2022-07-23T12:10:47;5.35;;;4.95;;
6665;SDS011;3369;49.906;8.598;2022-07-23T12:13:14;5.65;;;5.15;;
6665;SDS011;3369;49.906;8.598;2022-07-23T12:15:53;5.88;;;5.38;;
6665;SDS011;3369;49.906;8.598;2022-07-23T12:18:23;6.40;;;5.25;;
6665;SDS011;3369;49.906;8.598;2022-07-23T12:20:51;6.13;;;5.20;;
6665;SDS011;3369;49.906;8.598;2022-07-23T12:23:18;5.35;;;4.95;;
6665;SDS011;3369;49.906;8.598;2022-07-23T12:25:45;5.25;;;4.80;;
6665;SDS011;3369;49.906;8.598;2022-07-23T12:30:46;5.20;;;4.70;;
6665;SDS011;3369;49.906;8.598;2022-07-23T12:33:12;5.65;;;5.13;;
6665;SDS011;3369;49.906;8.598;2022-07-23T12:35:56;5.78;;;5.28;;
6665;SDS011;3369;49.906;8.598;2022-07-23T12:38:24;5.50;;;4.93;;
6665;SDS011;3369;49.906;8.598;2022-07-23T12:40:55;5.55;;;5.05;;
6665;SDS011;3369;49.906;8.598;2022-07-23T12:43:36;4.90;;;4.50;;
6665;SDS011;3369;49.906;8.598;2022-07-23T12:46:05;5.15;;;4.72;;
6665;SDS011;3369;49.906;8.598;2022-07-23T12:48:32;5.28;;;4.78;;
6665;SDS011;3369;49.906;8.598;2022-07-23T12:51:02;4.97;;;4.47;;
6665;SDS011;3369;49.906;8.598;2022-07-23T12:56:14;5.15;;;4.75;;
6665;SDS011;3369;49.906;8.598;2022-07-23T12:58:45;4.63;;;4.32;;
6665;SDS011;3369;49.906;8.598;2022-07-23T13:06:40;6.03;;;4.95;;
6665;SDS011;3369;49.906;8.598;2022-07-23T13:09:15;4.60;;;4.30;;
6665;SDS011;3369;49.906;8.598;2022-07-23T13:11:45;5.85;;;4.88;;
6665;SDS011;3369;49.906;8.598;2022-07-23T13:14:12;4.90;;;4.53;;
6665;SDS011;3369;49.906;8.598;2022-07-23T13:16:38;7.25;;;4.75;;
6665;SDS011;3369;49.906;8.598;2022-07-23T13:19:05;5.00;;;4.60;;
6665;SDS011;3369;49.906;8.598;2022-07-23T13:21:31;4.82;;;4.40;;
6665;SDS011;3369;49.906;8.598;2022-07-23T13:23:58;7.10;;;4.68;;
6665;SDS011;3369;49.906;8.598;2022-07-23T13:26:24;6.90;;;4.80;;
6665;SDS011;3369;49.906;8.598;2022-07-23T13:28:51;4.95;;;4.55;;
6665;SDS011;3369;49.906;8.598;2022-07-23T13:31:16;4.93;;;4.45;;
6665;SDS011;3369;49.906;8.598;2022-07-23T13:33:42;6.15;;;4.70;;
6665;SDS011;3369;49.906;8.598;2022-07-23T13:36:08;5.10;;;4.68;;
6665;SDS011;3369;49.906;8.598;2022-07-23T13:38:34;4.85;;;4.53;;
6665;SDS011;3369;49.906;8.598;2022-07-23T13:41:00;5.45;;;4.93;;
6665;SDS011;3369;49.906;8.598;2022-07-23T13:43:25;5.43;;;4.85;;
6665;SDS011;3369;49.906;8.598;2022-07-23T13:45:52;5.55;;;4.97;;
6665;SDS011;3369;49.906;8.598;2022-07-23T13:48:18;5.00;;;4.50;;
6665;SDS011;3369;49.906;8.598;2022-07-23T13:50:45;5.78;;;4.97;;
6665;SDS011;3369;49.906;8.598;2022-07-23T14:12:56;4.85;;;4.45;;
6665;SDS011;3369;49.906;8.598;2022-07-23T14:15:24;4.97;;;4.45;;
6665;SDS011;3369;49.906;8.598;2022-07-23T14:17:52;5.00;;;4.60;;
6665;SDS011;3369;49.906;8.598;2022-07-23T14:20:18;4.80;;;4.40;;
6665;SDS011;3369;49.906;8.598;2022-07-23T14:22:44;4.90;;;4.50;;
6665;SDS011;3369;49.906;8.598;2022-07-23T14:25:10;4.57;;;4.20;;
6665;SDS011;3369;49.906;8.598;2022-07-23T14:27:37;5.28;;;4.75;;
6665;SDS011;3369;49.906;8.598;2022-07-23T14:30:04;5.45;;;4.95;;
6665;SDS011;3369;49.906;8.598;2022-07-23T14:32:31;4.43;;;4.03;;
6665;SDS011;3369;49.906;8.598;2022-07-23T14:34:57;5.00;;;4.50;;
6665;SDS011;3369;49.906;8.598;2022-07-23T14:37:23;5.18;;;4.68;;
6665;SDS011;3369;49.906;8.598;2022-07-23T14:39:50;5.32;;;4.82;;
6665;SDS011;3369;49.906;8.598;2022-07-23T14:42:16;4.95;;;4.55;;
6665;SDS011;3369;49.906;8.598;2022-07-23T14:44:42;6.30;;;4.38;;
6665;SDS011;3369;49.906;8.598;2022-07-23T14:47:08;5.43;;;4.85;;
6665;SDS011;3369;49.906;8.598;2022-07-23T14:49:34;4.40;;;4.00;;
6665;SDS011;3369;49.906;8.598;2022-07-23T14:52:00;4.38;;;4.03;;
6665;SDS011;3369;49.906;8.598;2022-07-23T14:54:27;4.32;;;4.03;;
6665;SDS011;3369;49.906;8.598;2022-07-23T14:56:57;4.75;;;4.35;;
6665;SDS011;3369;49.906;8.598;2022-07-23T14:59:24;4.38;;;3.97;;
6665;SDS011;3369;49.906;8.598;2022-07-23T15:01:50;4.30;;;3.90;;
6665;SDS011;3369;49.906;8.598;2022-07-23T15:04:16;4.22;;;3.92;;
6665;SDS011;3369;49.906;8.598;2022-07-23T15:06:42;4.50;;;4.10;;
6665;SDS011;3369;49.906;8.598;2022-07-23T15:09:09;4.00;;;3.70;;
6665;SDS011;3369;49.906;8.598;2022-07-23T15:11:35;4.45;;;4.07;;
6665;SDS011;3369;49.906;8.598;2022-07-23T15:14:05;3.85;;;3.55;;
6665;SDS011;3369;49.906;8.598;2022-07-23T15:16:31;4.13;;;3.83;;
6665;SDS011;3369;49.906;8.598;2022-07-23T15:18:57;4.30;;;3.90;;
6665;SDS011;3369;49.906;8.598;2022-07-23T15:21:23;4.68;;;4.28;;
6665;SDS011;3369;49.906;8.598;2022-07-23T15:23:48;4.05;;;3.75;;
6665;SDS011;3369;49.906;8.598;2022-07-23T15:26:14;4.60;;;3.95;;
6665;SDS011;3369;49.906;8.598;2022-07-23T15:28:40;4.00;;;3.70;;
6665;SDS011;3369;49.906;8.598;2022-07-23T15:31:07;4.38;;;4.07;;
6665;SDS011;3369;49.906;8.598;2022-07-23T15:33:32;5.25;;;4.63;;
6665;SDS011;3369;49.906;8.598;2022-07-23T15:35:58;4.70;;;4.30;;
6665;SDS011;3369;49.906;8.598;2022-07-23T15:38:25;4.53;;;4.13;;
6665;SDS011;3369;49.906;8.598;2022-07-23T15:40:51;4.93;;;4.53;;
6665;SDS011;3369;49.906;8.598;2022-07-23T15:43:21;5.30;;;4.38;;
6665;SDS011;3369;49.906;8.598;2022-07-23T15:45:50;4.25;;;3.88;;
6665;SDS011;3369;49.906;8.598;2022-07-23T15:48:20;4.80;;;4.40;;
6665;SDS011;3369;49.906;8.598;2022-07-23T15:50:46;5.85;;;4.80;;
6665;SDS011;3369;49.906;8.598;2022-07-23T15:53:12;4.68;;;4.20;;
6665;SDS011;3369;49.906;8.598;2022-07-23T15:55:38;4.90;;;4.50;;
6665;SDS011;3369;49.906;8.598;2022-07-23T15:58:05;5.25;;;4.85;;
6665;SDS011;3369;49.906;8.598;2022-07-23T16:00:31;5.10;;;4.70;;
6665;SDS011;3369;49.906;8.598;2022-07-23T16:02:56;4.63;;;4.10;;
6665;SDS011;3369;49.906;8.598;2022-07-23T16:05:22;5.20;;;4.72;;
6665;SDS011;3369;49.906;8.598;2022-07-23T16:07:58;5.22;;;4.72;;
6665;SDS011;3369;49.906;8.598;2022-07-23T16:10:24;4.22;;;3.92;;
6665;SDS011;3369;49.906;8.598;2022-07-23T16:12:50;4.78;;;4.38;;
6665;SDS011;3369;49.906;8.598;2022-07-23T16:15:15;4.13;;;3.83;;
6665;SDS011;3369;49.906;8.598;2022-07-23T16:17:41;3.97;;;3.67;;
6665;SDS011;3369;49.906;8.598;2022-07-23T16:20:07;4.70;;;4.30;;
6665;SDS011;3369;49.906;8.598;2022-07-23T16:22:34;4.95;;;4.57;;
6665;SDS011;3369;49.906;8.598;2022-07-23T16:25:00;4.68;;;4.15;;
6665;SDS011;3369;49.906;8.598;2022-07-23T16:27:27;4.85;;;4.45;;
6665;SDS011;3369;49.906;8.598;2022-07-23T16:29:52;5.35;;;4.70;;
6665;SDS011;3369;49.906;8.598;2022-07-23T16:32:18;5.75;;;4.55;;
6665;SDS011;3369;49.906;8.598;2022-07-23T16:34:44;4.97;;;4.57;;
6665;SDS011;3369;49.906;8.598;2022-07-23T16:37:09;5.18;;;4.45;;
6665;SDS011;3369;49.906;8.598;2022-07-23T16:39:35;4.93;;;4.53;;
6665;SDS011;3369;49.906;8.598;2022-07-23T16:42:01;4.22;;;3.92;;
6665;SDS011;3369;49.906;8.598;2022-07-23T16:44:27;4.22;;;3.92;;